sensor_id;sensor_type;location;lat;lon;timestamp;P1;durP1;ratioP1;P2;durP2;ratioP2
3712;SDS011;1872;51.406;6.856;2023-03-14T00:00:49;9.80;;;4.40;;
3712;SDS011;1872;51.406;6.856;2023-03-14T00:03:14;5.30;;;2.60;;
3712;SDS011;1872;51.406;6.856;2023-03-14T00:05:40;3.47;;;2.83;;
3712;SDS011;1872;51.406;6.856;2023-03-14T00:08:05;3.80;;;2.40;;
3712;SDS011;1872;51.406;6.856;2023-03-14T00:10:31;5.00;;;2.63;;
3712;SDS011;1872;51.406;6.856;2023-03-14T00:12:57;4.30;;;2.47;;
3712;SDS011;1872;51.406;6.856;2023-03-14T00:15:22;3.30;;;2.57;;
3712;SDS011;1872;51.406;6.856;2023-03-14T00:17:48;4.53;;;2.37;;
3712;SDS011;1872;51.406;6.856;2023-03-14T00:20:13;2.83;;;2.60;;
3712;SDS011;1872;51.406;6.856;2023-03-14T00:22:39;5.77;;;2.53;;
3712;SDS011;1872;51.406;6.856;2023-03-14T00:25:07;7.47;;;2.70;;
3712;SDS011;1872;51.406;6.856;2023-03-14T00:27:33;3.30;;;2.83;;
3712;SDS011;1872;51.406;6.856;2023-03-14T00:30:00;5.37;;;2.70;;
3712;SDS011;1872;51.406;6.856;2023-03-14T00:32:26;5.13;;;2.70;;
3712;SDS011;1872;51.406;6.856;2023-03-14T00:34:51;5.03;;;2.90;;
3712;SDS011;1872;51.406;6.856;2023-03-14T00:37:17;5.60;;;2.70;;
3712;SDS011;1872;51.406;6.856;2023-03-14T00:39:43;4.33;;;2.70;;
3712;SDS011;1872;51.406;6.856;2023-03-14T00:42:08;3.23;;;2.70;;
3712;SDS011;1872;51.406;6.856;2023-03-14T00:44:34;3.10;;;2.00;;
3712;SDS011;1872;51.406;6.856;2023-03-14T00:47:00;5.10;;;2.23;;
3712;SDS011;1872;51.406;6.856;2023-03-14T00:49:26;2.50;;;2.30;;
3712;SDS011;1872;51.406;6.856;2023-03-14T00:51:51;2.33;;;2.13;;
3712;SDS011;1872;51.406;6.856;2023-03-14T00:54:18;2.10;;;1.53;;
3712;SDS011;1872;51.406;6.856;2023-03-14T00:56:44;6.73;;;1.70;;
3712;SDS011;1872;51.406;6.856;2023-03-14T00:59:10;3.03;;;1.80;;
3712;SDS011;1872;51.406;6.856;2023-03-14T01:01:37;3.43;;;1.87;;
3712;SDS011;1872;51.406;6.856;2023-03-14T01:04:03;3.17;;;2.97;;
3712;SDS011;1872;51.406;6.856;2023-03-14T01:06:29;4.60;;;3.13;;
3712;SDS011;1872;51.406;6.856;2023-03-14T01:08:55;2.03;;;1.50;;
3712;SDS011;1872;51.406;6.856;2023-03-14T01:11:23;2.40;;;1.77;;
3712;SDS011;1872;51.406;6.856;2023-03-14T01:13:50;2.10;;;1.90;;
3712;SDS011;1872;51.406;6.856;2023-03-14T01:16:17;1.80;;;1.70;;
3712;SDS011;1872;51.406;6.856;2023-03-14T01:18:44;2.10;;;1.77;;
3712;SDS011;1872;51.406;6.856;2023-03-14T01:21:16;2.00;;;1.80;;
3712;SDS011;1872;51.406;6.856;2023-03-14T01:23:47;3.00;;;1.60;;
3712;SDS011;1872;51.406;6.856;2023-03-14T01:26:15;2.47;;;2.07;;
3712;SDS011;1872;51.406;6.856;2023-03-14T01:28:45;5.53;;;1.97;;
3712;SDS011;1872;51.406;6.856;2023-03-14T01:31:15;3.70;;;1.80;;
3712;SDS011;1872;51.406;6.856;2023-03-14T01:33:41;2.40;;;1.83;;
3712;SDS011;1872;51.406;6.856;2023-03-14T01:36:07;3.80;;;2.00;;
3712;SDS011;1872;51.406;6.856;2023-03-14T01:38:35;1.70;;;1.60;;
3712;SDS011;1872;51.406;6.856;2023-03-14T01:41:02;3.97;;;2.07;;
3712;SDS011;1872;51.406;6.856;2023-03-14T01:43:29;2.97;;;2.10;;
3712;SDS011;1872;51.406;6.856;2023-03-14T01:48:44;4.00;;;1.80;;
3712;SDS011;1872;51.406;6.856;2023-03-14T01:51:21;2.60;;;1.90;;
3712;SDS011;1872;51.406;6.856;2023-03-14T01:53:51;2.40;;;2.20;;
3712;SDS011;1872;51.406;6.856;2023-03-14T01:56:19;6.13;;;2.33;;
3712;SDS011;1872;51.406;6.856;2023-03-14T01:58:47;3.13;;;2.43;;
3712;SDS011;1872;51.406;6.856;2023-03-14T02:01:16;2.23;;;1.83;;
3712;SDS011;1872;51.406;6.856;2023-03-14T02:03:46;2.10;;;1.90;;
3712;SDS011;1872;51.406;6.856;2023-03-14T02:06:17;6.37;;;2.03;;
3712;SDS011;1872;51.406;6.856;2023-03-14T02:08:47;3.60;;;1.73;;
3712;SDS011;1872;51.406;6.856;2023-03-14T02:11:14;3.30;;;2.47;;
3712;SDS011;1872;51.406;6.856;2023-03-14T02:13:41;2.97;;;1.73;;
3712;SDS011;1872;51.406;6.856;2023-03-14T02:16:07;3.20;;;1.80;;
3712;SDS011;1872;51.406;6.856;2023-03-14T02:18:33;2.37;;;2.17;;
3712;SDS011;1872;51.406;6.856;2023-03-14T02:29:33;2.70;;;2.47;;
3712;SDS011;1872;51.406;6.856;2023-03-14T02:32:02;2.33;;;2.00;;
3712;SDS011;1872;51.406;6.856;2023-03-14T02:34:28;4.20;;;1.80;;
3712;SDS011;1872;51.406;6.856;2023-03-14T02:36:56;2.23;;;1.60;;
3712;SDS011;1872;51.406;6.856;2023-03-14T02:39:24;3.77;;;2.10;;
3712;SDS011;1872;51.406;6.856;2023-03-14T02:41:56;3.50;;;2.20;;
3712;SDS011;1872;51.406;6.856;2023-03-14T02:44:22;6.83;;;2.43;;
3712;SDS011;1872;51.406;6.856;2023-03-14T02:46:47;3.40;;;2.17;;
3712;SDS011;1872;51.406;6.856;2023-03-14T02:49:13;4.77;;;2.00;;
3712;SDS011;1872;51.406;6.856;2023-03-14T02:51:40;3.03;;;2.30;;
3712;SDS011;1872;51.406;6.856;2023-03-14T02:54:08;2.20;;;2.00;;
3712;SDS011;1872;51.406;6.856;2023-03-14T02:56:33;6.80;;;3.50;;
3712;SDS011;1872;51.406;6.856;2023-03-14T02:59:02;4.23;;;2.30;;
3712;SDS011;1872;51.406;6.856;2023-03-14T03:01:30;3.80;;;2.10;;
3712;SDS011;1872;51.406;6.856;2023-03-14T03:03:56;3.27;;;2.90;;
3712;SDS011;1872;51.406;6.856;2023-03-14T03:06:22;6.87;;;3.17;;
3712;SDS011;1872;51.406;6.856;2023-03-14T03:08:47;3.23;;;2.93;;
3712;SDS011;1872;51.406;6.856;2023-03-14T03:11:13;3.40;;;1.80;;
3712;SDS011;1872;51.406;6.856;2023-03-14T03:13:40;7.10;;;2.50;;
3712;SDS011;1872;51.406;6.856;2023-03-14T03:16:05;2.53;;;1.60;;
3712;SDS011;1872;51.406;6.856;2023-03-14T03:18:31;4.57;;;1.80;;
3712;SDS011;1872;51.406;6.856;2023-03-14T03:21:03;5.40;;;2.23;;
3712;SDS011;1872;51.406;6.856;2023-03-14T03:23:30;3.10;;;2.03;;
3712;SDS011;1872;51.406;6.856;2023-03-14T03:25:56;4.57;;;2.00;;
3712;SDS011;1872;51.406;6.856;2023-03-14T03:28:22;4.47;;;2.07;;
3712;SDS011;1872;51.406;6.856;2023-03-14T03:30:48;3.30;;;2.30;;
3712;SDS011;1872;51.406;6.856;2023-03-14T03:33:13;3.03;;;2.20;;
3712;SDS011;1872;51.406;6.856;2023-03-14T03:35:43;5.67;;;2.67;;
3712;SDS011;1872;51.406;6.856;2023-03-14T03:38:09;2.90;;;2.60;;
3712;SDS011;1872;51.406;6.856;2023-03-14T03:40:36;2.53;;;2.30;;
3712;SDS011;1872;51.406;6.856;2023-03-14T03:43:02;3.00;;;2.00;;
3712;SDS011;1872;51.406;6.856;2023-03-14T03:45:28;2.00;;;1.80;;
3712;SDS011;1872;51.406;6.856;2023-03-14T03:47:55;2.43;;;1.93;;
3712;SDS011;1872;51.406;6.856;2023-03-14T03:50:21;5.03;;;2.50;;
3712;SDS011;1872;51.406;6.856;2023-03-14T03:52:46;3.83;;;2.30;;
3712;SDS011;1872;51.406;6.856;2023-03-14T03:55:12;2.97;;;1.93;;
3712;SDS011;1872;51.406;6.856;2023-03-14T03:57:37;5.77;;;2.40;;
3712;SDS011;1872;51.406;6.856;2023-03-14T04:00:04;4.57;;;2.10;;
3712;SDS011;1872;51.406;6.856;2023-03-14T04:02:30;2.63;;;2.50;;
3712;SDS011;1872;51.406;6.856;2023-03-14T04:04:56;4.30;;;2.20;;
3712;SDS011;1872;51.406;6.856;2023-03-14T04:07:22;4.93;;;2.57;;
3712;SDS011;1872;51.406;6.856;2023-03-14T04:09:47;4.57;;;1.83;;
3712;SDS011;1872;51.406;6.856;2023-03-14T04:12:13;4.00;;;3.33;;
3712;SDS011;1872;51.406;6.856;2023-03-14T04:14:39;4.47;;;2.30;;
3712;SDS011;1872;51.406;6.856;2023-03-14T04:17:06;3.43;;;1.83;;
3712;SDS011;1872;51.406;6.856;2023-03-14T04:19:32;6.90;;;2.00;;
3712;SDS011;1872;51.406;6.856;2023-03-14T04:21:57;5.60;;;1.80;;
3712;SDS011;1872;51.406;6.856;2023-03-14T04:24:23;1.40;;;1.30;;
3712;SDS011;1872;51.406;6.856;2023-03-14T04:26:49;3.37;;;1.93;;
3712;SDS011;1872;51.406;6.856;2023-03-14T04:29:14;3.07;;;1.63;;
3712;SDS011;1872;51.406;6.856;2023-03-14T04:31:40;1.10;;;1.10;;
3712;SDS011;1872;51.406;6.856;2023-03-14T04:34:06;1.90;;;1.80;;
3712;SDS011;1872;51.406;6.856;2023-03-14T04:36:31;1.70;;;1.40;;
3712;SDS011;1872;51.406;6.856;2023-03-14T04:38:57;1.70;;;1.43;;
3712;SDS011;1872;51.406;6.856;2023-03-14T04:41:22;3.57;;;2.10;;
3712;SDS011;1872;51.406;6.856;2023-03-14T04:43:48;1.80;;;1.70;;
3712;SDS011;1872;51.406;6.856;2023-03-14T04:46:13;2.17;;;2.07;;
3712;SDS011;1872;51.406;6.856;2023-03-14T04:48:39;1.30;;;1.20;;
3712;SDS011;1872;51.406;6.856;2023-03-14T04:51:05;1.00;;;1.00;;
3712;SDS011;1872;51.406;6.856;2023-03-14T04:53:31;1.20;;;1.10;;
3712;SDS011;1872;51.406;6.856;2023-03-14T04:55:56;1.80;;;1.30;;
3712;SDS011;1872;51.406;6.856;2023-03-14T04:58:22;1.20;;;1.20;;
3712;SDS011;1872;51.406;6.856;2023-03-14T05:00:48;1.27;;;1.20;;
3712;SDS011;1872;51.406;6.856;2023-03-14T05:03:15;2.30;;;1.40;;
3712;SDS011;1872;51.406;6.856;2023-03-14T05:05:42;3.70;;;1.23;;
3712;SDS011;1872;51.406;6.856;2023-03-14T05:08:08;1.00;;;1.00;;
3712;SDS011;1872;51.406;6.856;2023-03-14T05:10:34;1.43;;;1.33;;
3712;SDS011;1872;51.406;6.856;2023-03-14T05:12:59;1.20;;;1.10;;
3712;SDS011;1872;51.406;6.856;2023-03-14T05:15:25;2.20;;;1.20;;
3712;SDS011;1872;51.406;6.856;2023-03-14T05:17:51;1.90;;;1.20;;
3712;SDS011;1872;51.406;6.856;2023-03-14T05:20:17;1.50;;;1.40;;
3712;SDS011;1872;51.406;6.856;2023-03-14T05:22:43;3.73;;;1.40;;
3712;SDS011;1872;51.406;6.856;2023-03-14T05:25:09;1.10;;;1.00;;
3712;SDS011;1872;51.406;6.856;2023-03-14T05:27:35;2.40;;;2.30;;
3712;SDS011;1872;51.406;6.856;2023-03-14T05:30:01;1.27;;;1.23;;
3712;SDS011;1872;51.406;6.856;2023-03-14T05:32:28;2.00;;;1.83;;
3712;SDS011;1872;51.406;6.856;2023-03-14T05:34:53;1.43;;;1.33;;
3712;SDS011;1872;51.406;6.856;2023-03-14T05:37:23;1.90;;;1.33;;
3712;SDS011;1872;51.406;6.856;2023-03-14T05:39:49;1.80;;;1.70;;
3712;SDS011;1872;51.406;6.856;2023-03-14T05:42:14;2.00;;;1.90;;
3712;SDS011;1872;51.406;6.856;2023-03-14T05:44:40;2.83;;;1.70;;
3712;SDS011;1872;51.406;6.856;2023-03-14T05:47:05;1.77;;;1.67;;
3712;SDS011;1872;51.406;6.856;2023-03-14T05:49:31;2.83;;;1.80;;
3712;SDS011;1872;51.406;6.856;2023-03-14T05:51:57;2.30;;;2.10;;
3712;SDS011;1872;51.406;6.856;2023-03-14T05:54:22;3.63;;;2.33;;
3712;SDS011;1872;51.406;6.856;2023-03-14T05:56:48;2.00;;;1.90;;
3712;SDS011;1872;51.406;6.856;2023-03-14T05:59:14;2.50;;;2.30;;
3712;SDS011;1872;51.406;6.856;2023-03-14T06:01:40;4.43;;;2.13;;
3712;SDS011;1872;51.406;6.856;2023-03-14T06:04:05;2.60;;;2.40;;
3712;SDS011;1872;51.406;6.856;2023-03-14T06:06:31;1.83;;;1.70;;
3712;SDS011;1872;51.406;6.856;2023-03-14T06:08:56;4.10;;;2.17;;
3712;SDS011;1872;51.406;6.856;2023-03-14T06:11:22;2.00;;;1.90;;
3712;SDS011;1872;51.406;6.856;2023-03-14T06:13:48;2.43;;;2.30;;
3712;SDS011;1872;51.406;6.856;2023-03-14T06:16:15;1.73;;;1.47;;
3712;SDS011;1872;51.406;6.856;2023-03-14T06:18:43;2.17;;;1.70;;
3712;SDS011;1872;51.406;6.856;2023-03-14T06:21:11;2.30;;;1.40;;
3712;SDS011;1872;51.406;6.856;2023-03-14T06:23:37;1.50;;;1.40;;
3712;SDS011;1872;51.406;6.856;2023-03-14T06:26:04;1.50;;;1.40;;
3712;SDS011;1872;51.406;6.856;2023-03-14T06:28:30;1.33;;;1.23;;
3712;SDS011;1872;51.406;6.856;2023-03-14T06:30:55;1.27;;;1.10;;
3712;SDS011;1872;51.406;6.856;2023-03-14T06:33:21;2.10;;;1.37;;
3712;SDS011;1872;51.406;6.856;2023-03-14T06:35:47;1.30;;;1.20;;
3712;SDS011;1872;51.406;6.856;2023-03-14T06:38:12;1.60;;;1.20;;
3712;SDS011;1872;51.406;6.856;2023-03-14T06:40:38;1.03;;;0.93;;
3712;SDS011;1872;51.406;6.856;2023-03-14T06:43:04;1.10;;;1.00;;
3712;SDS011;1872;51.406;6.856;2023-03-14T06:45:29;1.20;;;1.10;;
3712;SDS011;1872;51.406;6.856;2023-03-14T06:47:55;1.17;;;1.17;;
3712;SDS011;1872;51.406;6.856;2023-03-14T06:50:21;1.57;;;1.47;;
3712;SDS011;1872;51.406;6.856;2023-03-14T06:52:47;1.27;;;1.10;;
3712;SDS011;1872;51.406;6.856;2023-03-14T06:55:14;2.70;;;1.00;;
3712;SDS011;1872;51.406;6.856;2023-03-14T06:57:42;1.00;;;1.00;;
3712;SDS011;1872;51.406;6.856;2023-03-14T07:00:09;1.37;;;1.00;;
3712;SDS011;1872;51.406;6.856;2023-03-14T07:02:36;1.07;;;0.90;;
3712;SDS011;1872;51.406;6.856;2023-03-14T07:05:02;1.00;;;1.00;;
3712;SDS011;1872;51.406;6.856;2023-03-14T07:07:28;1.00;;;1.00;;
3712;SDS011;1872;51.406;6.856;2023-03-14T07:09:54;1.33;;;1.23;;
3712;SDS011;1872;51.406;6.856;2023-03-14T07:12:20;4.00;;;1.10;;
3712;SDS011;1872;51.406;6.856;2023-03-14T07:14:46;1.30;;;1.20;;
3712;SDS011;1872;51.406;6.856;2023-03-14T07:17:11;2.53;;;2.33;;
3712;SDS011;1872;51.406;6.856;2023-03-14T07:19:37;1.00;;;1.00;;
3712;SDS011;1872;51.406;6.856;2023-03-14T07:22:06;1.00;;;1.00;;
3712;SDS011;1872;51.406;6.856;2023-03-14T07:24:32;1.63;;;1.00;;
3712;SDS011;1872;51.406;6.856;2023-03-14T07:26:57;1.10;;;1.10;;
3712;SDS011;1872;51.406;6.856;2023-03-14T07:29:23;0.83;;;0.83;;
3712;SDS011;1872;51.406;6.856;2023-03-14T07:31:49;1.00;;;1.00;;
3712;SDS011;1872;51.406;6.856;2023-03-14T07:34:14;1.23;;;1.23;;
3712;SDS011;1872;51.406;6.856;2023-03-14T07:36:40;0.90;;;0.90;;
3712;SDS011;1872;51.406;6.856;2023-03-14T07:39:06;1.00;;;1.00;;
3712;SDS011;1872;51.406;6.856;2023-03-14T07:41:37;1.43;;;1.33;;
3712;SDS011;1872;51.406;6.856;2023-03-14T07:44:05;1.60;;;1.50;;
3712;SDS011;1872;51.406;6.856;2023-03-14T07:46:34;1.57;;;1.40;;
3712;SDS011;1872;51.406;6.856;2023-03-14T07:55:17;1.30;;;1.20;;
3712;SDS011;1872;51.406;6.856;2023-03-14T07:57:59;1.40;;;1.00;;
3712;SDS011;1872;51.406;6.856;2023-03-14T08:00:28;2.67;;;1.50;;
3712;SDS011;1872;51.406;6.856;2023-03-14T08:02:56;1.60;;;1.50;;
3712;SDS011;1872;51.406;6.856;2023-03-14T08:05:25;1.87;;;1.77;;
3712;SDS011;1872;51.406;6.856;2023-03-14T08:07:55;1.57;;;1.30;;
3712;SDS011;1872;51.406;6.856;2023-03-14T08:10:24;1.60;;;1.50;;
3712;SDS011;1872;51.406;6.856;2023-03-14T08:12:54;1.70;;;1.60;;
3712;SDS011;1872;51.406;6.856;2023-03-14T08:15:23;1.83;;;1.73;;
3712;SDS011;1872;51.406;6.856;2023-03-14T08:17:58;1.80;;;1.70;;
3712;SDS011;1872;51.406;6.856;2023-03-14T08:20:27;2.93;;;2.20;;
3712;SDS011;1872;51.406;6.856;2023-03-14T08:22:59;2.10;;;2.00;;
3712;SDS011;1872;51.406;6.856;2023-03-14T08:25:28;1.80;;;1.70;;
3712;SDS011;1872;51.406;6.856;2023-03-14T08:27:59;2.40;;;2.00;;
3712;SDS011;1872;51.406;6.856;2023-03-14T08:30:27;1.93;;;1.73;;
3712;SDS011;1872;51.406;6.856;2023-03-14T08:32:55;1.73;;;1.63;;
3712;SDS011;1872;51.406;6.856;2023-03-14T08:35:25;2.10;;;2.00;;
3712;SDS011;1872;51.406;6.856;2023-03-14T08:37:57;1.80;;;1.70;;
3712;SDS011;1872;51.406;6.856;2023-03-14T08:40:23;3.43;;;2.63;;
3712;SDS011;1872;51.406;6.856;2023-03-14T08:42:49;2.83;;;2.40;;
3712;SDS011;1872;51.406;6.856;2023-03-14T08:45:17;2.20;;;2.10;;
3712;SDS011;1872;51.406;6.856;2023-03-14T08:47:44;2.70;;;2.50;;
3712;SDS011;1872;51.406;6.856;2023-03-14T08:50:11;3.00;;;2.80;;
3712;SDS011;1872;51.406;6.856;2023-03-14T08:52:38;2.80;;;2.60;;
3712;SDS011;1872;51.406;6.856;2023-03-14T08:55:06;2.80;;;2.60;;
3712;SDS011;1872;51.406;6.856;2023-03-14T08:57:40;3.93;;;3.53;;
3712;SDS011;1872;51.406;6.856;2023-03-14T09:00:08;4.37;;;3.93;;
3712;SDS011;1872;51.406;6.856;2023-03-14T09:02:55;4.87;;;4.27;;
3712;SDS011;1872;51.406;6.856;2023-03-14T09:05:25;4.77;;;4.27;;
3712;SDS011;1872;51.406;6.856;2023-03-14T09:07:57;5.57;;;4.90;;
3712;SDS011;1872;51.406;6.856;2023-03-14T09:10:27;7.20;;;5.60;;
3712;SDS011;1872;51.406;6.856;2023-03-14T09:12:56;6.97;;;6.17;;
3712;SDS011;1872;51.406;6.856;2023-03-14T09:15:24;14.47;;;8.60;;
3712;SDS011;1872;51.406;6.856;2023-03-14T09:18:01;7.53;;;6.23;;
3712;SDS011;1872;51.406;6.856;2023-03-14T09:20:49;1.80;;;1.70;;
3712;SDS011;1872;51.406;6.856;2023-03-14T09:23:16;1.73;;;1.63;;
3712;SDS011;1872;51.406;6.856;2023-03-14T09:25:43;1.50;;;1.40;;
3712;SDS011;1872;51.406;6.856;2023-03-14T09:28:12;1.80;;;1.60;;
3712;SDS011;1872;51.406;6.856;2023-03-14T09:30:41;1.87;;;1.77;;
3712;SDS011;1872;51.406;6.856;2023-03-14T09:33:09;3.30;;;2.37;;
3712;SDS011;1872;51.406;6.856;2023-03-14T09:35:43;2.40;;;2.20;;
3712;SDS011;1872;51.406;6.856;2023-03-14T09:38:11;2.30;;;2.10;;
3712;SDS011;1872;51.406;6.856;2023-03-14T09:40:41;2.67;;;1.90;;
3712;SDS011;1872;51.406;6.856;2023-03-14T09:43:17;2.13;;;1.93;;
3712;SDS011;1872;51.406;6.856;2023-03-14T09:45:57;2.00;;;1.90;;
3712;SDS011;1872;51.406;6.856;2023-03-14T09:48:32;1.97;;;1.87;;
3712;SDS011;1872;51.406;6.856;2023-03-14T09:51:01;2.07;;;1.87;;
3712;SDS011;1872;51.406;6.856;2023-03-14T09:53:39;3.87;;;2.30;;
3712;SDS011;1872;51.406;6.856;2023-03-14T09:56:14;3.27;;;2.30;;
3712;SDS011;1872;51.406;6.856;2023-03-14T09:58:53;2.20;;;2.00;;
3712;SDS011;1872;51.406;6.856;2023-03-14T10:01:32;3.07;;;2.50;;
3712;SDS011;1872;51.406;6.856;2023-03-14T10:04:06;3.40;;;3.10;;
3712;SDS011;1872;51.406;6.856;2023-03-14T10:06:39;2.73;;;2.53;;
3712;SDS011;1872;51.406;6.856;2023-03-14T10:09:05;2.80;;;2.60;;
3712;SDS011;1872;51.406;6.856;2023-03-14T10:11:45;3.07;;;2.70;;
3712;SDS011;1872;51.406;6.856;2023-03-14T10:14:12;3.00;;;2.70;;
3712;SDS011;1872;51.406;6.856;2023-03-14T10:16:53;3.00;;;2.80;;
3712;SDS011;1872;51.406;6.856;2023-03-14T10:19:20;2.60;;;2.50;;
3712;SDS011;1872;51.406;6.856;2023-03-14T10:21:51;2.40;;;2.20;;
3712;SDS011;1872;51.406;6.856;2023-03-14T10:24:20;2.60;;;2.40;;
3712;SDS011;1872;51.406;6.856;2023-03-14T10:26:52;2.60;;;2.33;;
3712;SDS011;1872;51.406;6.856;2023-03-14T10:29:18;2.33;;;2.23;;
3712;SDS011;1872;51.406;6.856;2023-03-14T10:31:48;3.00;;;2.70;;
3712;SDS011;1872;51.406;6.856;2023-03-14T10:34:24;2.60;;;2.40;;
3712;SDS011;1872;51.406;6.856;2023-03-14T10:36:55;2.97;;;2.67;;
3712;SDS011;1872;51.406;6.856;2023-03-14T10:39:47;4.73;;;3.40;;
3712;SDS011;1872;51.406;6.856;2023-03-14T10:42:28;6.63;;;4.73;;
3712;SDS011;1872;51.406;6.856;2023-03-14T10:45:06;5.83;;;4.87;;
3712;SDS011;1872;51.406;6.856;2023-03-14T10:47:57;3.20;;;2.90;;
3712;SDS011;1872;51.406;6.856;2023-03-14T10:53:25;2.83;;;2.63;;
3712;SDS011;1872;51.406;6.856;2023-03-14T10:55:51;4.07;;;3.37;;
3712;SDS011;1872;51.406;6.856;2023-03-14T10:58:18;3.80;;;3.50;;
3712;SDS011;1872;51.406;6.856;2023-03-14T11:03:33;2.50;;;2.30;;
3712;SDS011;1872;51.406;6.856;2023-03-14T11:11:25;4.20;;;2.60;;
3712;SDS011;1872;51.406;6.856;2023-03-14T11:17:20;4.50;;;2.13;;
3712;SDS011;1872;51.406;6.856;2023-03-14T11:22:29;2.50;;;2.23;;
3712;SDS011;1872;51.406;6.856;2023-03-14T11:27:43;5.00;;;3.30;;
3712;SDS011;1872;51.406;6.856;2023-03-14T11:35:22;2.53;;;1.83;;
3712;SDS011;1872;51.406;6.856;2023-03-14T11:37:51;1.70;;;1.60;;
3712;SDS011;1872;51.406;6.856;2023-03-14T11:40:30;2.07;;;1.77;;
3712;SDS011;1872;51.406;6.856;2023-03-14T11:43:15;1.83;;;1.73;;
3712;SDS011;1872;51.406;6.856;2023-03-14T11:46:15;3.20;;;1.97;;
3712;SDS011;1872;51.406;6.856;2023-03-14T11:48:57;1.67;;;1.57;;
3712;SDS011;1872;51.406;6.856;2023-03-14T11:52:09;2.60;;;1.90;;
3712;SDS011;1872;51.406;6.856;2023-03-14T11:57:15;2.20;;;2.00;;
3712;SDS011;1872;51.406;6.856;2023-03-14T12:02:28;2.73;;;1.77;;
3712;SDS011;1872;51.406;6.856;2023-03-14T12:10:42;2.50;;;1.90;;
3712;SDS011;1872;51.406;6.856;2023-03-14T12:13:38;2.07;;;1.97;;
3712;SDS011;1872;51.406;6.856;2023-03-14T12:16:10;3.30;;;2.00;;
3712;SDS011;1872;51.406;6.856;2023-03-14T12:18:45;2.47;;;1.80;;
3712;SDS011;1872;51.406;6.856;2023-03-14T12:21:11;1.43;;;1.33;;
3712;SDS011;1872;51.406;6.856;2023-03-14T12:23:47;3.10;;;1.57;;
3712;SDS011;1872;51.406;6.856;2023-03-14T12:26:22;2.73;;;2.00;;
3712;SDS011;1872;51.406;6.856;2023-03-14T12:44:49;4.97;;;2.50;;
3712;SDS011;1872;51.406;6.856;2023-03-14T12:49:52;6.87;;;2.77;;
3712;SDS011;1872;51.406;6.856;2023-03-14T12:52:28;3.57;;;2.90;;
3712;SDS011;1872;51.406;6.856;2023-03-14T12:55:10;3.23;;;2.37;;
3712;SDS011;1872;51.406;6.856;2023-03-14T12:57:45;3.07;;;2.23;;
3712;SDS011;1872;51.406;6.856;2023-03-14T13:00:22;4.13;;;2.40;;
3712;SDS011;1872;51.406;6.856;2023-03-14T13:02:59;6.20;;;2.83;;
3712;SDS011;1872;51.406;6.856;2023-03-14T13:05:54;6.60;;;2.73;;
3712;SDS011;1872;51.406;6.856;2023-03-14T13:08:34;3.37;;;2.20;;
3712;SDS011;1872;51.406;6.856;2023-03-14T13:11:09;3.60;;;2.50;;
3712;SDS011;1872;51.406;6.856;2023-03-14T13:13:41;8.23;;;2.53;;
3712;SDS011;1872;51.406;6.856;2023-03-14T13:16:12;10.07;;;3.33;;
3712;SDS011;1872;51.406;6.856;2023-03-14T13:18:43;5.20;;;3.00;;
3712;SDS011;1872;51.406;6.856;2023-03-14T13:21:26;4.30;;;2.70;;
3712;SDS011;1872;51.406;6.856;2023-03-14T13:23:57;3.27;;;2.07;;
3712;SDS011;1872;51.406;6.856;2023-03-14T13:26:24;8.77;;;2.77;;
3712;SDS011;1872;51.406;6.856;2023-03-14T13:28:57;3.97;;;2.60;;
3712;SDS011;1872;51.406;6.856;2023-03-14T13:31:24;8.20;;;3.70;;
3712;SDS011;1872;51.406;6.856;2023-03-14T13:34:00;12.87;;;8.67;;
3712;SDS011;1872;51.406;6.856;2023-03-14T13:36:31;8.00;;;3.30;;
3712;SDS011;1872;51.406;6.856;2023-03-14T13:39:00;6.13;;;3.13;;
3712;SDS011;1872;51.406;6.856;2023-03-14T13:41:27;8.50;;;3.33;;
3712;SDS011;1872;51.406;6.856;2023-03-14T13:44:13;7.87;;;3.07;;
3712;SDS011;1872;51.406;6.856;2023-03-14T13:47:01;7.43;;;4.07;;
3712;SDS011;1872;51.406;6.856;2023-03-14T13:49:29;7.60;;;3.30;;
3712;SDS011;1872;51.406;6.856;2023-03-14T13:51:57;6.17;;;3.17;;
3712;SDS011;1872;51.406;6.856;2023-03-14T13:54:24;5.97;;;3.40;;
3712;SDS011;1872;51.406;6.856;2023-03-14T13:57:01;7.30;;;3.20;;
3712;SDS011;1872;51.406;6.856;2023-03-14T13:59:31;8.87;;;4.47;;
3712;SDS011;1872;51.406;6.856;2023-03-14T14:02:01;14.80;;;2.83;;
3712;SDS011;1872;51.406;6.856;2023-03-14T14:04:35;7.30;;;3.97;;
3712;SDS011;1872;51.406;6.856;2023-03-14T14:07:06;5.00;;;2.63;;
3712;SDS011;1872;51.406;6.856;2023-03-14T14:09:41;10.30;;;3.43;;
3712;SDS011;1872;51.406;6.856;2023-03-14T14:14:39;8.37;;;3.10;;
3712;SDS011;1872;51.406;6.856;2023-03-14T14:17:10;6.07;;;3.17;;
3712;SDS011;1872;51.406;6.856;2023-03-14T14:19:38;9.73;;;2.97;;
3712;SDS011;1872;51.406;6.856;2023-03-14T14:22:06;7.63;;;3.47;;
3712;SDS011;1872;51.406;6.856;2023-03-14T14:24:35;7.87;;;3.23;;
3712;SDS011;1872;51.406;6.856;2023-03-14T14:27:07;4.27;;;3.00;;
3712;SDS011;1872;51.406;6.856;2023-03-14T14:29:42;4.93;;;2.43;;
3712;SDS011;1872;51.406;6.856;2023-03-14T14:37:31;9.23;;;3.17;;
3712;SDS011;1872;51.406;6.856;2023-03-14T14:39:59;3.63;;;2.23;;
3712;SDS011;1872;51.406;6.856;2023-03-14T14:42:38;5.60;;;2.20;;
3712;SDS011;1872;51.406;6.856;2023-03-14T14:45:05;6.50;;;2.63;;
3712;SDS011;1872;51.406;6.856;2023-03-14T14:47:35;6.90;;;2.17;;
3712;SDS011;1872;51.406;6.856;2023-03-14T14:50:04;4.37;;;2.20;;
3712;SDS011;1872;51.406;6.856;2023-03-14T14:55:02;4.10;;;2.50;;
3712;SDS011;1872;51.406;6.856;2023-03-14T14:57:39;4.97;;;2.10;;
3712;SDS011;1872;51.406;6.856;2023-03-14T15:00:10;3.73;;;1.93;;
3712;SDS011;1872;51.406;6.856;2023-03-14T15:02:47;5.47;;;2.63;;
3712;SDS011;1872;51.406;6.856;2023-03-14T15:05:18;10.77;;;2.80;;
3712;SDS011;1872;51.406;6.856;2023-03-14T15:07:46;7.37;;;2.60;;
3712;SDS011;1872;51.406;6.856;2023-03-14T15:10:13;3.73;;;2.30;;
3712;SDS011;1872;51.406;6.856;2023-03-14T15:12:57;7.60;;;2.80;;
3712;SDS011;1872;51.406;6.856;2023-03-14T15:15:23;6.07;;;2.40;;
3712;SDS011;1872;51.406;6.856;2023-03-14T15:17:49;4.07;;;3.37;;
3712;SDS011;1872;51.406;6.856;2023-03-14T15:20:16;3.90;;;2.37;;
3712;SDS011;1872;51.406;6.856;2023-03-14T15:22:43;11.43;;;2.80;;
3712;SDS011;1872;51.406;6.856;2023-03-14T15:25:09;6.17;;;2.73;;
3712;SDS011;1872;51.406;6.856;2023-03-14T15:27:36;5.07;;;2.00;;
3712;SDS011;1872;51.406;6.856;2023-03-14T15:30:09;4.07;;;2.57;;
3712;SDS011;1872;51.406;6.856;2023-03-14T15:32:36;4.07;;;1.43;;
3712;SDS011;1872;51.406;6.856;2023-03-14T15:35:02;5.50;;;2.27;;
3712;SDS011;1872;51.406;6.856;2023-03-14T15:37:28;3.40;;;1.70;;
3712;SDS011;1872;51.406;6.856;2023-03-14T15:39:53;2.70;;;1.80;;
3712;SDS011;1872;51.406;6.856;2023-03-14T15:42:22;4.00;;;2.30;;
3712;SDS011;1872;51.406;6.856;2023-03-14T15:44:48;3.27;;;2.20;;
3712;SDS011;1872;51.406;6.856;2023-03-14T15:47:14;6.60;;;2.47;;
3712;SDS011;1872;51.406;6.856;2023-03-14T15:49:40;6.60;;;2.50;;
3712;SDS011;1872;51.406;6.856;2023-03-14T15:52:06;3.65;;;1.85;;
3712;SDS011;1872;51.406;6.856;2023-03-14T15:54:33;5.20;;;2.63;;
3712;SDS011;1872;51.406;6.856;2023-03-14T15:56:59;2.27;;;1.53;;
3712;SDS011;1872;51.406;6.856;2023-03-14T15:59:25;4.67;;;2.20;;
3712;SDS011;1872;51.406;6.856;2023-03-14T16:01:51;2.50;;;1.83;;
3712;SDS011;1872;51.406;6.856;2023-03-14T16:04:17;4.63;;;2.03;;
3712;SDS011;1872;51.406;6.856;2023-03-14T16:06:43;4.40;;;2.00;;
3712;SDS011;1872;51.406;6.856;2023-03-14T16:09:10;5.40;;;2.40;;
3712;SDS011;1872;51.406;6.856;2023-03-14T16:11:37;3.73;;;1.93;;
3712;SDS011;1872;51.406;6.856;2023-03-14T16:14:03;1.90;;;1.80;;
3712;SDS011;1872;51.406;6.856;2023-03-14T16:16:29;5.00;;;2.00;;
3712;SDS011;1872;51.406;6.856;2023-03-14T16:18:57;2.30;;;1.90;;
3712;SDS011;1872;51.406;6.856;2023-03-14T16:21:23;2.57;;;1.73;;
3712;SDS011;1872;51.406;6.856;2023-03-14T16:23:48;4.03;;;2.27;;
3712;SDS011;1872;51.406;6.856;2023-03-14T16:26:15;5.90;;;2.53;;
3712;SDS011;1872;51.406;6.856;2023-03-14T16:28:43;3.73;;;2.20;;
3712;SDS011;1872;51.406;6.856;2023-03-14T16:31:10;5.20;;;2.90;;
3712;SDS011;1872;51.406;6.856;2023-03-14T16:33:38;6.03;;;2.27;;
3712;SDS011;1872;51.406;6.856;2023-03-14T16:36:05;3.40;;;1.77;;
3712;SDS011;1872;51.406;6.856;2023-03-14T16:38:33;5.10;;;2.70;;
3712;SDS011;1872;51.406;6.856;2023-03-14T16:41:01;4.43;;;2.50;;
3712;SDS011;1872;51.406;6.856;2023-03-14T16:43:29;7.73;;;2.20;;
3712;SDS011;1872;51.406;6.856;2023-03-14T16:45:58;5.60;;;2.20;;
3712;SDS011;1872;51.406;6.856;2023-03-14T16:48:25;2.70;;;1.80;;